sensor_id;sensor_type;location;lat;lon;timestamp;temperature;humidity
30399;DHT22;17195;50.838;7.214;2023-11-18T00:00:09;4.50;99.90
30399;DHT22;17195;50.838;7.214;2023-11-18T00:02:38;4.60;99.90
30399;DHT22;17195;50.838;7.214;2023-11-18T00:05:04;4.60;99.90
30399;DHT22;17195;50.838;7.214;2023-11-18T00:07:30;4.70;99.90
30399;DHT22;17195;50.838;7.214;2023-11-18T00:09:57;4.70;99.90
30399;DHT22;17195;50.838;7.214;2023-11-18T00:12:23;4.70;99.90
30399;DHT22;17195;50.838;7.214;2023-11-18T00:14:49;4.70;99.90
30399;DHT22;17195;50.838;7.214;2023-11-18T00:17:15;4.80;99.90
30399;DHT22;17195;50.838;7.214;2023-11-18T00:19:41;4.70;99.90
30399;DHT22;17195;50.838;7.214;2023-11-18T00:22:08;4.80;99.90
30399;DHT22;17195;50.838;7.214;2023-11-18T00:24:33;4.80;99.90
30399;DHT22;17195;50.838;7.214;2023-11-18T00:27:02;4.70;99.90
30399;DHT22;17195;50.838;7.214;2023-11-18T00:29:34;4.80;99.90
30399;DHT22;17195;50.838;7.214;2023-11-18T00:32:00;4.80;99.90
30399;DHT22;17195;50.838;7.214;2023-11-18T00:34:26;4.80;99.90
30399;DHT22;17195;50.838;7.214;2023-11-18T00:36:52;4.90;99.90
30399;DHT22;17195;50.838;7.214;2023-11-18T00:39:17;4.90;99.90
30399;DHT22;17195;50.838;7.214;2023-11-18T00:41:43;4.90;99.90
30399;DHT22;17195;50.838;7.214;2023-11-18T00:44:09;5.00;99.90
30399;DHT22;17195;50.838;7.214;2023-11-18T00:46:35;5.00;99.90
30399;DHT22;17195;50.838;7.214;2023-11-18T00:49:02;5.00;99.90
30399;DHT22;17195;50.838;7.214;2023-11-18T00:51:28;5.00;99.90
30399;DHT22;17195;50.838;7.214;2023-11-18T00:53:54;5.00;99.90
30399;DHT22;17195;50.838;7.214;2023-11-18T00:56:20;5.00;99.90
30399;DHT22;17195;50.838;7.214;2023-11-18T00:58:47;5.00;99.90
30399;DHT22;17195;50.838;7.214;2023-11-18T01:01:13;5.00;99.90
30399;DHT22;17195;50.838;7.214;2023-11-18T01:03:38;5.00;99.90
30399;DHT22;17195;50.838;7.214;2023-11-18T01:06:04;5.00;99.90
30399;DHT22;17195;50.838;7.214;2023-11-18T01:08:31;5.00;99.90
30399;DHT22;17195;50.838;7.214;2023-11-18T01:10:57;5.00;99.90
30399;DHT22;17195;50.838;7.214;2023-11-18T01:13:23;5.00;99.90
30399;DHT22;17195;50.838;7.214;2023-11-18T01:15:49;5.00;99.90
30399;DHT22;17195;50.838;7.214;2023-11-18T01:18:15;5.00;99.90
30399;DHT22;17195;50.838;7.214;2023-11-18T01:20:40;5.00;99.90
30399;DHT22;17195;50.838;7.214;2023-11-18T01:23:06;5.00;99.90
30399;DHT22;17195;50.838;7.214;2023-11-18T01:25:31;5.00;99.90
30399;DHT22;17195;50.838;7.214;2023-11-18T01:27:57;5.00;99.90
30399;DHT22;17195;50.838;7.214;2023-11-18T01:30:22;5.00;99.90
30399;DHT22;17195;50.838;7.214;2023-11-18T01:32:49;5.00;99.90
30399;DHT22;17195;50.838;7.214;2023-11-18T01:35:15;5.10;99.90
30399;DHT22;17195;50.838;7.214;2023-11-18T01:37:40;5.10;99.90
30399;DHT22;17195;50.838;7.214;2023-11-18T01:40:06;5.10;99.90
30399;DHT22;17195;50.838;7.214;2023-11-18T01:42:38;5.10;99.90
30399;DHT22;17195;50.838;7.214;2023-11-18T01:45:04;5.10;99.90
30399;DHT22;17195;50.838;7.214;2023-11-18T01:47:32;5.10;99.90
30399;DHT22;17195;50.838;7.214;2023-11-18T01:49:59;5.10;99.90
30399;DHT22;17195;50.838;7.214;2023-11-18T01:52:27;5.20;99.90
30399;DHT22;17195;50.838;7.214;2023-11-18T01:54:55;5.20;99.90
30399;DHT22;17195;50.838;7.214;2023-11-18T01:57:21;5.20;99.90
30399;DHT22;17195;50.838;7.214;2023-11-18T01:59:47;5.20;99.90
30399;DHT22;17195;50.838;7.214;2023-11-18T02:02:13;5.20;99.90
30399;DHT22;17195;50.838;7.214;2023-11-18T02:04:39;5.20;99.90
30399;DHT22;17195;50.838;7.214;2023-11-18T02:07:04;5.10;99.90
30399;DHT22;17195;50.838;7.214;2023-11-18T02:09:34;5.10;99.90
30399;DHT22;17195;50.838;7.214;2023-11-18T02:12:16;5.10;99.90
30399;DHT22;17195;50.838;7.214;2023-11-18T02:14:43;5.20;99.90
30399;DHT22;17195;50.838;7.214;2023-11-18T02:17:13;5.20;99.90
30399;DHT22;17195;50.838;7.214;2023-11-18T02:19:40;5.20;99.90
30399;DHT22;17195;50.838;7.214;2023-11-18T02:22:06;5.30;99.90
30399;DHT22;17195;50.838;7.214;2023-11-18T02:24:33;5.30;99.90
30399;DHT22;17195;50.838;7.214;2023-11-18T02:27:03;5.30;99.90
30399;DHT22;17195;50.838;7.214;2023-11-18T02:29:36;5.30;99.90
30399;DHT22;17195;50.838;7.214;2023-11-18T02:32:23;5.30;99.90
30399;DHT22;17195;50.838;7.214;2023-11-18T02:35:18;5.30;99.90
30399;DHT22;17195;50.838;7.214;2023-11-18T02:37:47;5.30;99.90
30399;DHT22;17195;50.838;7.214;2023-11-18T02:40:33;5.20;99.90
30399;DHT22;17195;50.838;7.214;2023-11-18T02:43:01;5.30;99.90
30399;DHT22;17195;50.838;7.214;2023-11-18T02:45:27;5.30;99.90
30399;DHT22;17195;50.838;7.214;2023-11-18T02:47:53;5.30;99.90
30399;DHT22;17195;50.838;7.214;2023-11-18T02:50:26;5.30;99.90
30399;DHT22;17195;50.838;7.214;2023-11-18T02:52:55;5.30;99.90
30399;DHT22;17195;50.838;7.214;2023-11-18T02:55:21;5.30;99.90
30399;DHT22;17195;50.838;7.214;2023-11-18T02:57:48;5.30;99.90
30399;DHT22;17195;50.838;7.214;2023-11-18T03:00:15;5.30;99.90
30399;DHT22;17195;50.838;7.214;2023-11-18T03:02:44;5.30;99.90
30399;DHT22;17195;50.838;7.214;2023-11-18T03:05:12;5.30;99.90
30399;DHT22;17195;50.838;7.214;2023-11-18T03:07:39;5.30;99.90
30399;DHT22;17195;50.838;7.214;2023-11-18T03:10:05;5.30;99.90
30399;DHT22;17195;50.838;7.214;2023-11-18T03:12:36;5.40;99.90
30399;DHT22;17195;50.838;7.214;2023-11-18T03:15:06;5.40;99.90
30399;DHT22;17195;50.838;7.214;2023-11-18T03:17:34;5.30;99.90
30399;DHT22;17195;50.838;7.214;2023-11-18T03:20:00;5.30;99.90
30399;DHT22;17195;50.838;7.214;2023-11-18T03:22:25;5.30;99.90
30399;DHT22;17195;50.838;7.214;2023-11-18T03:24:51;5.30;99.90
30399;DHT22;17195;50.838;7.214;2023-11-18T03:27:17;5.30;99.90
30399;DHT22;17195;50.838;7.214;2023-11-18T03:29:43;5.40;99.90
30399;DHT22;17195;50.838;7.214;2023-11-18T03:32:11;5.30;99.90
30399;DHT22;17195;50.838;7.214;2023-11-18T03:34:37;5.40;99.90
30399;DHT22;17195;50.838;7.214;2023-11-18T03:37:03;5.30;99.90
30399;DHT22;17195;50.838;7.214;2023-11-18T03:39:29;5.40;99.90
30399;DHT22;17195;50.838;7.214;2023-11-18T03:41:54;5.40;99.90
30399;DHT22;17195;50.838;7.214;2023-11-18T03:44:22;5.40;99.90
30399;DHT22;17195;50.838;7.214;2023-11-18T03:46:49;5.40;99.90
30399;DHT22;17195;50.838;7.214;2023-11-18T03:49:15;5.30;99.90
30399;DHT22;17195;50.838;7.214;2023-11-18T03:51:40;5.30;99.90
30399;DHT22;17195;50.838;7.214;2023-11-18T03:54:06;5.30;99.90
30399;DHT22;17195;50.838;7.214;2023-11-18T03:56:34;5.30;99.90
30399;DHT22;17195;50.838;7.214;2023-11-18T03:58:59;5.30;99.90
30399;DHT22;17195;50.838;7.214;2023-11-18T04:01:26;5.30;99.90
30399;DHT22;17195;50.838;7.214;2023-11-18T04:03:54;5.20;99.90
30399;DHT22;17195;50.838;7.214;2023-11-18T04:06:21;5.20;99.90
30399;DHT22;17195;50.838;7.214;2023-11-18T04:08:47;5.20;99.90
30399;DHT22;17195;50.838;7.214;2023-11-18T04:11:16;5.20;99.90
30399;DHT22;17195;50.838;7.214;2023-11-18T04:13:43;5.10;99.90
30399;DHT22;17195;50.838;7.214;2023-11-18T04:16:13;5.10;99.90
30399;DHT22;17195;50.838;7.214;2023-11-18T04:18:41;5.00;99.90
30399;DHT22;17195;50.838;7.214;2023-11-18T04:21:08;5.00;99.90
30399;DHT22;17195;50.838;7.214;2023-11-18T04:23:38;4.90;99.90
30399;DHT22;17195;50.838;7.214;2023-11-18T04:26:04;4.90;99.90
30399;DHT22;17195;50.838;7.214;2023-11-18T04:28:31;4.90;99.90
30399;DHT22;17195;50.838;7.214;2023-11-18T04:30:56;4.80;99.90
30399;DHT22;17195;50.838;7.214;2023-11-18T04:33:22;4.80;99.90
30399;DHT22;17195;50.838;7.214;2023-11-18T04:35:50;4.80;99.90
30399;DHT22;17195;50.838;7.214;2023-11-18T04:38:16;4.70;99.90
30399;DHT22;17195;50.838;7.214;2023-11-18T04:40:42;4.70;99.90
30399;DHT22;17195;50.838;7.214;2023-11-18T04:43:10;4.70;99.90
30399;DHT22;17195;50.838;7.214;2023-11-18T04:45:36;4.60;99.90
30399;DHT22;17195;50.838;7.214;2023-11-18T04:48:02;4.60;99.90
30399;DHT22;17195;50.838;7.214;2023-11-18T04:50:29;4.50;99.90
30399;DHT22;17195;50.838;7.214;2023-11-18T04:52:55;4.50;99.90
30399;DHT22;17195;50.838;7.214;2023-11-18T04:55:21;4.50;99.90
30399;DHT22;17195;50.838;7.214;2023-11-18T04:57:47;4.40;99.90
30399;DHT22;17195;50.838;7.214;2023-11-18T05:00:13;4.40;99.90
30399;DHT22;17195;50.838;7.214;2023-11-18T05:02:42;4.40;99.90
30399;DHT22;17195;50.838;7.214;2023-11-18T05:05:08;4.50;99.90
30399;DHT22;17195;50.838;7.214;2023-11-18T05:07:34;4.40;99.90
30399;DHT22;17195;50.838;7.214;2023-11-18T05:10:01;4.40;99.90
30399;DHT22;17195;50.838;7.214;2023-11-18T05:12:27;4.40;99.90
30399;DHT22;17195;50.838;7.214;2023-11-18T05:14:55;4.30;99.90
30399;DHT22;17195;50.838;7.214;2023-11-18T05:17:22;4.30;99.90
30399;DHT22;17195;50.838;7.214;2023-11-18T05:19:47;4.30;99.90
30399;DHT22;17195;50.838;7.214;2023-11-18T05:22:13;4.30;99.90
30399;DHT22;17195;50.838;7.214;2023-11-18T05:24:39;4.20;99.90
30399;DHT22;17195;50.838;7.214;2023-11-18T05:27:04;4.20;99.90
30399;DHT22;17195;50.838;7.214;2023-11-18T05:29:31;4.20;99.90
30399;DHT22;17195;50.838;7.214;2023-11-18T05:31:57;4.20;99.90
30399;DHT22;17195;50.838;7.214;2023-11-18T05:34:23;4.20;99.90
30399;DHT22;17195;50.838;7.214;2023-11-18T05:36:49;4.20;99.90
30399;DHT22;17195;50.838;7.214;2023-11-18T05:39:20;4.20;99.90
30399;DHT22;17195;50.838;7.214;2023-11-18T05:41:45;4.20;99.90
30399;DHT22;17195;50.838;7.214;2023-11-18T05:44:15;4.20;99.90
30399;DHT22;17195;50.838;7.214;2023-11-18T05:46:48;4.20;99.90
30399;DHT22;17195;50.838;7.214;2023-11-18T05:49:17;4.20;99.90
30399;DHT22;17195;50.838;7.214;2023-11-18T05:51:43;4.30;99.90
30399;DHT22;17195;50.838;7.214;2023-11-18T05:54:09;4.40;99.90
30399;DHT22;17195;50.838;7.214;2023-11-18T05:56:35;4.40;99.90
30399;DHT22;17195;50.838;7.214;2023-11-18T05:59:00;4.50;99.90
30399;DHT22;17195;50.838;7.214;2023-11-18T06:01:29;4.50;99.90
30399;DHT22;17195;50.838;7.214;2023-11-18T06:03:55;4.50;99.90
30399;DHT22;17195;50.838;7.214;2023-11-18T06:06:22;4.50;99.90
30399;DHT22;17195;50.838;7.214;2023-11-18T06:08:47;4.50;99.90
30399;DHT22;17195;50.838;7.214;2023-11-18T06:11:14;4.60;99.90
30399;DHT22;17195;50.838;7.214;2023-11-18T06:13:51;4.60;99.90
30399;DHT22;17195;50.838;7.214;2023-11-18T06:16:22;4.60;99.90
30399;DHT22;17195;50.838;7.214;2023-11-18T06:18:49;4.70;99.90
30399;DHT22;17195;50.838;7.214;2023-11-18T06:21:19;4.70;99.90
30399;DHT22;17195;50.838;7.214;2023-11-18T06:23:46;4.70;99.90
30399;DHT22;17195;50.838;7.214;2023-11-18T06:26:13;4.70;99.90
30399;DHT22;17195;50.838;7.214;2023-11-18T06:28:40;4.70;99.90
30399;DHT22;17195;50.838;7.214;2023-11-18T06:31:06;4.80;99.90
30399;DHT22;17195;50.838;7.214;2023-11-18T06:33:45;4.80;99.90
30399;DHT22;17195;50.838;7.214;2023-11-18T06:38:42;4.90;99.90
30399;DHT22;17195;50.838;7.214;2023-11-18T06:41:09;4.90;99.90
30399;DHT22;17195;50.838;7.214;2023-11-18T06:43:38;4.90;99.90
30399;DHT22;17195;50.838;7.214;2023-11-18T06:46:20;4.90;99.90
30399;DHT22;17195;50.838;7.214;2023-11-18T06:48:49;5.00;99.90
30399;DHT22;17195;50.838;7.214;2023-11-18T06:51:16;5.00;99.90
30399;DHT22;17195;50.838;7.214;2023-11-18T06:53:42;5.10;99.90
30399;DHT22;17195;50.838;7.214;2023-11-18T06:56:11;5.10;99.90
30399;DHT22;17195;50.838;7.214;2023-11-18T06:58:39;5.10;99.90
30399;DHT22;17195;50.838;7.214;2023-11-18T07:01:06;5.10;99.90
30399;DHT22;17195;50.838;7.214;2023-11-18T07:03:32;5.10;99.90
30399;DHT22;17195;50.838;7.214;2023-11-18T07:05:57;5.10;99.90
30399;DHT22;17195;50.838;7.214;2023-11-18T07:08:23;5.10;99.90
30399;DHT22;17195;50.838;7.214;2023-11-18T07:10:49;5.20;99.90
30399;DHT22;17195;50.838;7.214;2023-11-18T07:13:15;5.20;99.90
30399;DHT22;17195;50.838;7.214;2023-11-18T07:15:41;5.30;99.90
30399;DHT22;17195;50.838;7.214;2023-11-18T07:18:07;5.20;99.90
30399;DHT22;17195;50.838;7.214;2023-11-18T07:20:34;5.20;99.90
30399;DHT22;17195;50.838;7.214;2023-11-18T07:23:00;5.20;99.90
30399;DHT22;17195;50.838;7.214;2023-11-18T07:25:25;5.30;99.90
30399;DHT22;17195;50.838;7.214;2023-11-18T07:27:51;5.30;99.90
30399;DHT22;17195;50.838;7.214;2023-11-18T07:30:17;5.40;99.90
30399;DHT22;17195;50.838;7.214;2023-11-18T07:32:43;5.50;99.90
30399;DHT22;17195;50.838;7.214;2023-11-18T07:35:09;5.50;99.90
30399;DHT22;17195;50.838;7.214;2023-11-18T07:37:36;5.60;99.90
30399;DHT22;17195;50.838;7.214;2023-11-18T07:40:03;5.60;99.90
30399;DHT22;17195;50.838;7.214;2023-11-18T07:42:31;5.70;99.90
30399;DHT22;17195;50.838;7.214;2023-11-18T07:45:00;5.70;99.90
30399;DHT22;17195;50.838;7.214;2023-11-18T07:47:29;5.80;99.90
30399;DHT22;17195;50.838;7.214;2023-11-18T07:49:59;5.80;99.90
30399;DHT22;17195;50.838;7.214;2023-11-18T07:52:29;5.90;99.90
30399;DHT22;17195;50.838;7.214;2023-11-18T07:54:55;5.90;99.90
30399;DHT22;17195;50.838;7.214;2023-11-18T07:57:20;6.00;99.90
30399;DHT22;17195;50.838;7.214;2023-11-18T07:59:46;6.10;99.90
30399;DHT22;17195;50.838;7.214;2023-11-18T08:02:11;6.20;99.90
30399;DHT22;17195;50.838;7.214;2023-11-18T08:04:39;6.30;99.90
30399;DHT22;17195;50.838;7.214;2023-11-18T08:07:07;6.30;99.90
30399;DHT22;17195;50.838;7.214;2023-11-18T08:09:35;6.40;99.90
30399;DHT22;17195;50.838;7.214;2023-11-18T08:12:05;6.50;99.90
30399;DHT22;17195;50.838;7.214;2023-11-18T08:14:31;6.60;99.90
30399;DHT22;17195;50.838;7.214;2023-11-18T08:16:57;6.60;99.90
30399;DHT22;17195;50.838;7.214;2023-11-18T08:19:25;6.70;99.90
30399;DHT22;17195;50.838;7.214;2023-11-18T08:21:50;6.70;99.90
30399;DHT22;17195;50.838;7.214;2023-11-18T08:24:17;6.80;99.90
30399;DHT22;17195;50.838;7.214;2023-11-18T08:26:43;6.80;99.90
30399;DHT22;17195;50.838;7.214;2023-11-18T08:29:08;6.80;99.90
30399;DHT22;17195;50.838;7.214;2023-11-18T08:31:34;6.90;99.90
30399;DHT22;17195;50.838;7.214;2023-11-18T08:34:00;7.00;99.90
30399;DHT22;17195;50.838;7.214;2023-11-18T08:36:25;7.10;99.90
30399;DHT22;17195;50.838;7.214;2023-11-18T08:38:53;7.10;99.90
30399;DHT22;17195;50.838;7.214;2023-11-18T08:41:19;7.20;99.90
30399;DHT22;17195;50.838;7.214;2023-11-18T08:43:45;7.30;99.90
30399;DHT22;17195;50.838;7.214;2023-11-18T08:46:14;7.40;99.90
30399;DHT22;17195;50.838;7.214;2023-11-18T08:48:40;7.40;99.90
30399;DHT22;17195;50.838;7.214;2023-11-18T08:51:07;7.40;99.90
30399;DHT22;17195;50.838;7.214;2023-11-18T08:53:34;7.50;99.90
30399;DHT22;17195;50.838;7.214;2023-11-18T08:56:08;7.60;99.90
30399;DHT22;17195;50.838;7.214;2023-11-18T08:58:40;7.60;99.90
30399;DHT22;17195;50.838;7.214;2023-11-18T09:01:06;7.70;99.90
30399;DHT22;17195;50.838;7.214;2023-11-18T09:03:38;7.70;99.90
30399;DHT22;17195;50.838;7.214;2023-11-18T09:06:09;7.70;99.90
30399;DHT22;17195;50.838;7.214;2023-11-18T09:08:46;7.80;99.90
30399;DHT22;17195;50.838;7.214;2023-11-18T09:11:14;7.80;99.90
30399;DHT22;17195;50.838;7.214;2023-11-18T09:13:44;7.80;99.90
30399;DHT22;17195;50.838;7.214;2023-11-18T09:16:14;7.90;99.90
30399;DHT22;17195;50.838;7.214;2023-11-18T09:18:42;8.00;99.90
30399;DHT22;17195;50.838;7.214;2023-11-18T09:21:11;8.00;99.90
30399;DHT22;17195;50.838;7.214;2023-11-18T09:23:48;8.00;99.90
30399;DHT22;17195;50.838;7.214;2023-11-18T09:26:15;8.00;99.90
30399;DHT22;17195;50.838;7.214;2023-11-18T09:28:42;8.00;99.90
30399;DHT22;17195;50.838;7.214;2023-11-18T09:31:07;8.10;99.90
30399;DHT22;17195;50.838;7.214;2023-11-18T09:33:37;8.10;99.90
30399;DHT22;17195;50.838;7.214;2023-11-18T09:36:06;8.00;99.90
30399;DHT22;17195;50.838;7.214;2023-11-18T09:38:37;8.00;99.90
30399;DHT22;17195;50.838;7.214;2023-11-18T09:41:07;8.10;99.90
30399;DHT22;17195;50.838;7.214;2023-11-18T09:43:36;8.10;99.90
30399;DHT22;17195;50.838;7.214;2023-11-18T09:46:09;8.10;99.90
30399;DHT22;17195;50.838;7.214;2023-11-18T09:48:49;8.10;99.90
30399;DHT22;17195;50.838;7.214;2023-11-18T09:51:22;8.10;99.90
30399;DHT22;17195;50.838;7.214;2023-11-18T09:53:55;8.10;99.90
30399;DHT22;17195;50.838;7.214;2023-11-18T10:01:57;8.20;99.90
30399;DHT22;17195;50.838;7.214;2023-11-18T10:04:24;8.20;99.90
30399;DHT22;17195;50.838;7.214;2023-11-18T10:06:53;8.20;99.90
30399;DHT22;17195;50.838;7.214;2023-11-18T10:09:19;8.20;99.90
30399;DHT22;17195;50.838;7.214;2023-11-18T10:11:54;8.20;99.90
30399;DHT22;17195;50.838;7.214;2023-11-18T10:14:28;8.30;99.90
30399;DHT22;17195;50.838;7.214;2023-11-18T10:16:55;8.30;99.90
30399;DHT22;17195;50.838;7.214;2023-11-18T10:19:21;8.40;99.90
30399;DHT22;17195;50.838;7.214;2023-11-18T10:21:47;8.50;99.90
30399;DHT22;17195;50.838;7.214;2023-11-18T10:24:15;8.50;99.90
30399;DHT22;17195;50.838;7.214;2023-11-18T10:26:54;8.60;99.90
30399;DHT22;17195;50.838;7.214;2023-11-18T10:29:24;8.60;99.90
30399;DHT22;17195;50.838;7.214;2023-11-18T10:32:05;8.60;99.90
30399;DHT22;17195;50.838;7.214;2023-11-18T10:34:34;8.60;99.90
30399;DHT22;17195;50.838;7.214;2023-11-18T10:37:01;8.60;99.90
30399;DHT22;17195;50.838;7.214;2023-11-18T10:39:29;8.60;99.90
30399;DHT22;17195;50.838;7.214;2023-11-18T10:41:59;8.70;99.90
30399;DHT22;17195;50.838;7.214;2023-11-18T10:44:26;8.70;99.90
30399;DHT22;17195;50.838;7.214;2023-11-18T10:46:55;8.80;99.90
30399;DHT22;17195;50.838;7.214;2023-11-18T10:49:26;8.80;99.90
30399;DHT22;17195;50.838;7.214;2023-11-18T10:51:52;8.70;99.90
30399;DHT22;17195;50.838;7.214;2023-11-18T10:54:18;8.70;99.90
30399;DHT22;17195;50.838;7.214;2023-11-18T10:56:51;8.80;99.90
30399;DHT22;17195;50.838;7.214;2023-11-18T10:59:22;8.70;99.90
30399;DHT22;17195;50.838;7.214;2023-11-18T11:01:48;8.70;99.90
30399;DHT22;17195;50.838;7.214;2023-11-18T11:04:15;8.80;99.90
30399;DHT22;17195;50.838;7.214;2023-11-18T11:06:50;8.70;99.90
30399;DHT22;17195;50.838;7.214;2023-11-18T11:09:20;8.80;99.90
30399;DHT22;17195;50.838;7.214;2023-11-18T11:14:21;8.80;99.90
30399;DHT22;17195;50.838;7.214;2023-11-18T11:16:57;8.90;99.90
30399;DHT22;17195;50.838;7.214;2023-11-18T11:19:31;9.00;99.90
30399;DHT22;17195;50.838;7.214;2023-11-18T11:22:10;9.00;99.90
30399;DHT22;17195;50.838;7.214;2023-11-18T11:25:03;9.00;99.90
30399;DHT22;17195;50.838;7.214;2023-11-18T11:36:02;8.90;99.90
30399;DHT22;17195;50.838;7.214;2023-11-18T11:38:29;8.90;99.90
30399;DHT22;17195;50.838;7.214;2023-11-18T11:40:55;8.90;99.90
30399;DHT22;17195;50.838;7.214;2023-11-18T11:43:25;8.90;99.90
30399;DHT22;17195;50.838;7.214;2023-11-18T11:45:54;8.90;99.90
30399;DHT22;17195;50.838;7.214;2023-11-18T11:48:22;8.90;99.90
30399;DHT22;17195;50.838;7.214;2023-11-18T11:51:10;9.00;99.90
30399;DHT22;17195;50.838;7.214;2023-11-18T11:54:06;9.00;99.90
30399;DHT22;17195;50.838;7.214;2023-11-18T11:56:44;9.00;99.90
30399;DHT22;17195;50.838;7.214;2023-11-18T11:59:15;9.10;99.90
30399;DHT22;17195;50.838;7.214;2023-11-18T12:01:41;9.10;99.90
30399;DHT22;17195;50.838;7.214;2023-11-18T12:04:14;9.10;99.90
30399;DHT22;17195;50.838;7.214;2023-11-18T12:06:47;9.10;99.90
30399;DHT22;17195;50.838;7.214;2023-11-18T12:09:14;9.20;99.90
30399;DHT22;17195;50.838;7.214;2023-11-18T12:11:48;9.20;99.90
30399;DHT22;17195;50.838;7.214;2023-11-18T12:14:17;9.20;99.90
30399;DHT22;17195;50.838;7.214;2023-11-18T12:19:38;9.30;99.90
30399;DHT22;17195;50.838;7.214;2023-11-18T12:22:13;9.20;99.90
30399;DHT22;17195;50.838;7.214;2023-11-18T12:32:59;9.20;99.90
30399;DHT22;17195;50.838;7.214;2023-11-18T12:44:14;9.20;99.90
30399;DHT22;17195;50.838;7.214;2023-11-18T12:49:20;9.20;99.90
30399;DHT22;17195;50.838;7.214;2023-11-18T12:51:54;9.20;99.90
30399;DHT22;17195;50.838;7.214;2023-11-18T12:54:22;9.20;99.90
30399;DHT22;17195;50.838;7.214;2023-11-18T12:56:51;9.10;99.90
30399;DHT22;17195;50.838;7.214;2023-11-18T12:59:19;9.10;99.90
30399;DHT22;17195;50.838;7.214;2023-11-18T13:01:52;9.10;99.90
30399;DHT22;17195;50.838;7.214;2023-11-18T13:04:22;9.00;99.90
30399;DHT22;17195;50.838;7.214;2023-11-18T13:06:50;9.00;99.90
30399;DHT22;17195;50.838;7.214;2023-11-18T13:09:17;9.00;99.90
30399;DHT22;17195;50.838;7.214;2023-11-18T13:11:56;9.00;99.90
30399;DHT22;17195;50.838;7.214;2023-11-18T13:14:23;9.00;99.90
30399;DHT22;17195;50.838;7.214;2023-11-18T13:16:51;9.00;99.90
30399;DHT22;17195;50.838;7.214;2023-11-18T13:19:27;9.00;99.90
30399;DHT22;17195;50.838;7.214;2023-11-18T13:22:06;8.90;99.90
30399;DHT22;17195;50.838;7.214;2023-11-18T13:24:35;8.90;99.90
30399;DHT22;17195;50.838;7.214;2023-11-18T13:27:02;8.90;99.90
30399;DHT22;17195;50.838;7.214;2023-11-18T13:29:32;8.90;99.90
30399;DHT22;17195;50.838;7.214;2023-11-18T13:31:58;8.90;99.90
30399;DHT22;17195;50.838;7.214;2023-11-18T13:34:26;8.90;99.90
30399;DHT22;17195;50.838;7.214;2023-11-18T13:36:53;8.90;99.90
30399;DHT22;17195;50.838;7.214;2023-11-18T13:39:19;8.90;99.90
30399;DHT22;17195;50.838;7.214;2023-11-18T13:41:49;8.80;99.90
30399;DHT22;17195;50.838;7.214;2023-11-18T13:44:34;8.80;99.90
30399;DHT22;17195;50.838;7.214;2023-11-18T13:47:09;8.80;99.90
30399;DHT22;17195;50.838;7.214;2023-11-18T13:49:40;8.90;99.90
30399;DHT22;17195;50.838;7.214;2023-11-18T13:52:06;8.80;99.90
30399;DHT22;17195;50.838;7.214;2023-11-18T13:54:35;8.80;99.90
30399;DHT22;17195;50.838;7.214;2023-11-18T13:57:01;8.80;99.90
30399;DHT22;17195;50.838;7.214;2023-11-18T13:59:28;8.80;99.90
30399;DHT22;17195;50.838;7.214;2023-11-18T14:01:54;8.80;99.90
30399;DHT22;17195;50.838;7.214;2023-11-18T14:04:24;8.80;99.90
30399;DHT22;17195;50.838;7.214;2023-11-18T14:06:57;8.80;99.90
30399;DHT22;17195;50.838;7.214;2023-11-18T14:09:23;8.80;99.90
30399;DHT22;17195;50.838;7.214;2023-11-18T14:11:55;8.80;99.90
30399;DHT22;17195;50.838;7.214;2023-11-18T14:14:22;8.80;99.90
30399;DHT22;17195;50.838;7.214;2023-11-18T14:16:48;8.80;99.90
30399;DHT22;17195;50.838;7.214;2023-11-18T14:19:15;8.80;99.90
30399;DHT22;17195;50.838;7.214;2023-11-18T14:21:40;8.80;99.90
30399;DHT22;17195;50.838;7.214;2023-11-18T14:24:08;8.80;99.90
30399;DHT22;17195;50.838;7.214;2023-11-18T14:26:36;8.80;99.90
30399;DHT22;17195;50.838;7.214;2023-11-18T14:29:01;8.80;99.90
30399;DHT22;17195;50.838;7.214;2023-11-18T14:31:27;8.80;99.90
30399;DHT22;17195;50.838;7.214;2023-11-18T14:33:54;8.80;99.90
30399;DHT22;17195;50.838;7.214;2023-11-18T14:36:24;8.80;99.90
30399;DHT22;17195;50.838;7.214;2023-11-18T14:38:50;8.80;99.90
30399;DHT22;17195;50.838;7.214;2023-11-18T14:41:15;8.80;99.90
30399;DHT22;17195;50.838;7.214;2023-11-18T14:43:42;8.80;99.90
30399;DHT22;17195;50.838;7.214;2023-11-18T14:46:07;8.80;99.90
30399;DHT22;17195;50.838;7.214;2023-11-18T14:48:34;8.80;99.90
30399;DHT22;17195;50.838;7.214;2023-11-18T14:50:59;8.70;99.90
30399;DHT22;17195;50.838;7.214;2023-11-18T14:53:26;8.70;99.90
30399;DHT22;17195;50.838;7.214;2023-11-18T14:55:51;8.60;99.90
30399;DHT22;17195;50.838;7.214;2023-11-18T14:58:17;8.60;99.90
30399;DHT22;17195;50.838;7.214;2023-11-18T15:00:42;8.60;99.90
30399;DHT22;17195;50.838;7.214;2023-11-18T15:03:08;8.60;99.90
30399;DHT22;17195;50.838;7.214;2023-11-18T15:05:34;8.60;99.90
30399;DHT22;17195;50.838;7.214;2023-11-18T15:08:00;8.50;99.90
30399;DHT22;17195;50.838;7.214;2023-11-18T15:10:27;8.50;99.90
30399;DHT22;17195;50.838;7.214;2023-11-18T15:12:58;8.50;99.90
30399;DHT22;17195;50.838;7.214;2023-11-18T15:15:25;8.50;99.90
30399;DHT22;17195;50.838;7.214;2023-11-18T15:18:06;8.50;99.90
30399;DHT22;17195;50.838;7.214;2023-11-18T15:20:34;8.50;99.90
30399;DHT22;17195;50.838;7.214;2023-11-18T15:23:03;8.50;99.90
30399;DHT22;17195;50.838;7.214;2023-11-18T15:25:29;8.50;99.90
30399;DHT22;17195;50.838;7.214;2023-11-18T15:27:55;8.50;99.90
30399;DHT22;17195;50.838;7.214;2023-11-18T15:30:21;8.50;99.90
30399;DHT22;17195;50.838;7.214;2023-11-18T15:32:50;8.40;99.90
30399;DHT22;17195;50.838;7.214;2023-11-18T15:35:17;8.40;99.90
30399;DHT22;17195;50.838;7.214;2023-11-18T15:37:44;8.40;99.90
30399;DHT22;17195;50.838;7.214;2023-11-18T15:40:14;8.40;99.90
30399;DHT22;17195;50.838;7.214;2023-11-18T15:42:44;8.30;99.90
30399;DHT22;17195;50.838;7.214;2023-11-18T15:45:15;8.40;99.90
30399;DHT22;17195;50.838;7.214;2023-11-18T15:47:42;8.40;99.90
30399;DHT22;17195;50.838;7.214;2023-11-18T15:50:09;8.30;99.90
30399;DHT22;17195;50.838;7.214;2023-11-18T15:52:50;8.30;99.90
30399;DHT22;17195;50.838;7.214;2023-11-18T15:55:19;8.40;99.90
30399;DHT22;17195;50.838;7.214;2023-11-18T15:57:48;8.40;99.90
30399;DHT22;17195;50.838;7.214;2023-11-18T16:00:27;8.40;99.90
30399;DHT22;17195;50.838;7.214;2023-11-18T16:02:56;8.40;99.90
30399;DHT22;17195;50.838;7.214;2023-11-18T16:05:24;8.40;99.90
30399;DHT22;17195;50.838;7.214;2023-11-18T16:07:51;8.40;99.90
30399;DHT22;17195;50.838;7.214;2023-11-18T16:10:17;8.40;99.90
30399;DHT22;17195;50.838;7.214;2023-11-18T16:12:49;8.40;99.90
30399;DHT22;17195;50.838;7.214;2023-11-18T16:15:22;8.40;99.90
30399;DHT22;17195;50.838;7.214;2023-11-18T16:17:48;8.40;99.90
30399;DHT22;17195;50.838;7.214;2023-11-18T16:20:16;8.40;99.90
30399;DHT22;17195;50.838;7.214;2023-11-18T16:22:45;8.40;99.90
30399;DHT22;17195;50.838;7.214;2023-11-18T16:25:31;8.40;99.90
30399;DHT22;17195;50.838;7.214;2023-11-18T16:27:58;8.40;99.90
30399;DHT22;17195;50.838;7.214;2023-11-18T16:30:25;8.40;99.90
30399;DHT22;17195;50.838;7.214;2023-11-18T16:32:54;8.40;99.90